createdAt,value
2022-12-27T00:00:10.486Z,99830.31
2022-12-27T00:02:40.693Z,99835.44
2022-12-27T00:05:12.187Z,99826.88
2022-12-27T00:07:41.150Z,99828.56
2022-12-27T00:10:11.499Z,99823.44
2022-12-27T00:12:40.582Z,99826.00
2022-12-27T00:15:10.379Z,99824.28
2022-12-27T00:17:40.129Z,99827.72
2022-12-27T00:20:11.568Z,99831.13
2022-12-27T00:22:41.119Z,99829.41
2022-12-27T00:25:10.881Z,99815.72
2022-12-27T00:27:40.052Z,99820.88
2022-12-27T00:30:10.436Z,99820.88
2022-12-27T00:32:40.645Z,99816.59
2022-12-27T00:35:10.206Z,99816.59
2022-12-27T00:37:38.788Z,99816.53
2022-12-27T00:40:10.471Z,99814.84
2022-12-27T00:42:38.899Z,99821.69
2022-12-27T00:45:10.077Z,99819.13
2022-12-27T00:47:40.617Z,99819.13
2022-12-27T00:50:10.029Z,99833.69
2022-12-27T00:52:38.616Z,99830.25
2022-12-27T00:55:07.675Z,99831.09
2022-12-27T00:57:36.268Z,99828.53
2022-12-27T01:00:10.055Z,99844.78
2022-12-27T01:02:40.859Z,99828.53
2022-12-27T01:05:10.363Z,99835.38
2022-12-27T01:07:39.067Z,99826.84
2022-12-27T01:10:08.742Z,99829.41
2022-12-27T01:12:38.069Z,99823.41
2022-12-27T01:15:08.950Z,99828.53
2022-12-27T01:17:37.458Z,99836.25
2022-12-27T01:20:09.305Z,99825.97
2022-12-27T01:22:37.879Z,99830.25
2022-12-27T01:25:08.114Z,99821.69
2022-12-27T01:27:37.019Z,99828.53
2022-12-27T01:30:06.633Z,99822.53
2022-12-27T01:32:36.127Z,99827.66
2022-12-27T01:35:08.856Z,99819.13
2022-12-27T01:37:37.378Z,99815.69
2022-12-27T01:40:07.634Z,99817.41
2022-12-27T01:42:53.612Z,99827.66
2022-12-27T01:45:25.216Z,99832.81
2022-12-27T01:48:01.005Z,99837.09
2022-12-27T01:50:37.916Z,99823.41
2022-12-27T01:53:15.105Z,99824.25
2022-12-27T01:55:50.097Z,99820.84
2022-12-27T01:58:27.151Z,99825.97
2022-12-27T02:00:57.304Z,99825.97
2022-12-27T02:03:29.471Z,99820.84
2022-12-27T02:06:01.312Z,99818.28
2022-12-27T02:08:40.296Z,99813.13
2022-12-27T02:11:10.531Z,99817.41
2022-12-27T02:13:42.667Z,99809.72
2022-12-27T02:16:18.247Z,99808.88
2022-12-27T02:18:47.873Z,99815.72
2022-12-27T02:22:14.210Z,99818.28
2022-12-27T02:25:16.873Z,99810.59
2022-12-27T02:28:09.975Z,99810.59
2022-12-27T02:30:40.909Z,99811.44
2022-12-27T02:33:16.640Z,99815.72
2022-12-27T02:35:52.362Z,99814.03
2022-12-27T02:38:27.366Z,99812.34
2022-12-27T02:41:15.229Z,99814.03
2022-12-27T02:44:00.916Z,99820.91
2022-12-27T02:46:50.602Z,99823.50
2022-12-27T02:49:44.469Z,99823.47
2022-12-27T02:53:05.844Z,99831.22
2022-12-27T02:56:13.784Z,99832.94
2022-12-27T02:59:01.156Z,99836.38
2022-12-27T03:02:00.917Z,99838.94
2022-12-27T03:04:51.123Z,99834.66
2022-12-27T03:07:34.032Z,99832.97
2022-12-27T03:10:45.002Z,99846.69
2022-12-27T03:13:42.691Z,99846.69
2022-12-27T03:16:24.202Z,99846.69
2022-12-27T03:19:07.153Z,99872.34
2022-12-27T03:21:56.684Z,99886.88
2022-12-27T03:24:47.321Z,99905.75
2022-12-27T03:27:27.824Z,99908.38
2022-12-27T03:30:17.188Z,99923.78
2022-12-27T03:33:09.144Z,99938.28
2022-12-27T03:35:43.982Z,99951.09
2022-12-27T03:38:14.017Z,99969.78
2022-12-27T03:41:03.706Z,99980.75
2022-12-27T03:43:33.489Z,99978.06
2022-12-27T03:46:43.789Z,99986.41
2022-12-27T03:49:24.377Z,99998.19
2022-12-27T03:52:01.235Z,100005.75
2022-12-27T03:54:34.326Z,100007.34
2022-12-27T03:57:08.423Z,100008.97
2022-12-27T03:59:36.963Z,100006.34
2022-12-27T04:02:06.988Z,100012.19
2022-12-27T04:04:35.694Z,100024.03
2022-12-27T04:07:06.021Z,100035.03
2022-12-27T04:09:51.973Z,100035.81
2022-12-27T04:12:38.603Z,100030.72
2022-12-27T04:15:25.245Z,100040.88
2022-12-27T04:18:11.013Z,100034.03
2022-12-27T04:20:56.953Z,100032.31
2022-12-27T04:23:43.948Z,100031.44
2022-12-27T04:26:29.979Z,100054.38
2022-12-27T04:29:15.924Z,100051.81
2022-12-27T04:32:01.546Z,100056.91
2022-12-27T04:34:42.830Z,100064.56
2022-12-27T04:37:13.759Z,100060.28
2022-12-27T04:40:04.019Z,100074.72
2022-12-27T04:42:49.988Z,100087.44
2022-12-27T04:45:35.837Z,100094.16
2022-12-27T04:48:22.385Z,100092.47
2022-12-27T04:51:08.320Z,100102.66
2022-12-27T04:53:53.975Z,100106.09
2022-12-27T04:56:23.800Z,100097.56
2022-12-27T04:59:06.053Z,100097.56
2022-12-27T05:01:52.133Z,100100.06
2022-12-27T05:04:20.920Z,100102.59
2022-12-27T05:06:49.480Z,100111.91
2022-12-27T05:09:35.667Z,100127.19
2022-12-27T05:12:23.193Z,100130.56
2022-12-27T05:14:51.685Z,100133.91
2022-12-27T05:17:20.164Z,100133.91
2022-12-27T05:19:48.658Z,100144.06
2022-12-27T05:22:34.209Z,100146.56
2022-12-27T05:25:19.915Z,100150.75
2022-12-27T05:27:49.726Z,100159.19
2022-12-27T05:30:18.284Z,100155.69
2022-12-27T05:32:46.722Z,100159.88
2022-12-27T05:35:15.266Z,100162.31
2022-12-27T05:37:43.685Z,100175.84
2022-12-27T05:40:13.676Z,100180.88
2022-12-27T05:42:42.212Z,100189.34
2022-12-27T05:45:12.291Z,100189.25
2022-12-27T05:47:40.727Z,100201.16
2022-12-27T05:50:10.875Z,100196.81
2022-12-27T05:52:41.240Z,100198.50
2022-12-27T05:55:10.921Z,100199.38
2022-12-27T05:57:39.710Z,100218.94
2022-12-27T06:00:10.464Z,100224.88
2022-12-27T06:02:40.854Z,100230.91
2022-12-27T06:05:10.933Z,100236.00
2022-12-27T06:07:40.308Z,100235.09
2022-12-27T06:10:10.401Z,100229.13
2022-12-27T06:12:39.443Z,100236.78
2022-12-27T06:15:09.189Z,100236.69
2022-12-27T06:17:39.027Z,100231.50
2022-12-27T06:20:08.699Z,100240.75
2022-12-27T06:22:37.137Z,100237.28
2022-12-27T06:25:09.693Z,100232.91
2022-12-27T06:27:41.060Z,100236.22
2022-12-27T06:30:12.207Z,100244.59
2022-12-27T06:32:42.101Z,100253.03
2022-12-27T06:35:11.337Z,100258.06
2022-12-27T06:37:39.842Z,100258.84
2022-12-27T06:40:09.912Z,100267.34
2022-12-27T06:42:38.333Z,100277.53
2022-12-27T06:45:09.555Z,100274.97
2022-12-27T06:47:38.107Z,100285.97
2022-12-27T06:50:09.063Z,100280.84
2022-12-27T06:52:37.536Z,100282.41
2022-12-27T06:55:06.690Z,100288.41
2022-12-27T06:57:35.202Z,100291.75
2022-12-27T07:00:04.611Z,100297.66
2022-12-27T07:02:33.148Z,100315.50
2022-12-27T07:05:01.900Z,100319.75
2022-12-27T07:07:31.796Z,100326.53
2022-12-27T07:10:00.349Z,100322.25
2022-12-27T07:12:34.696Z,100338.41
2022-12-27T07:15:05.898Z,100338.41
2022-12-27T07:17:36.721Z,100330.72
2022-12-27T07:20:05.909Z,100334.88
2022-12-27T07:22:35.770Z,100349.31
2022-12-27T07:25:04.369Z,100345.06
2022-12-27T07:27:35.239Z,100344.22
2022-12-27T07:30:06.385Z,100346.00
2022-12-27T07:32:34.951Z,100355.47
2022-12-27T07:35:03.796Z,100366.63
2022-12-27T07:37:32.248Z,100363.34
2022-12-27T07:40:02.061Z,100366.00
2022-12-27T07:42:30.551Z,100367.81
2022-12-27T07:44:59.235Z,100377.25
2022-12-27T07:47:28.308Z,100377.44
2022-12-27T07:49:56.914Z,100382.78
2022-12-27T07:52:27.406Z,100379.59
2022-12-27T07:54:55.818Z,100382.25
2022-12-27T07:57:25.671Z,100389.25
2022-12-27T07:59:54.057Z,100389.53
2022-12-27T08:02:22.552Z,100384.59
2022-12-27T08:04:51.013Z,100395.78
2022-12-27T08:07:21.244Z,100402.56
2022-12-27T08:09:50.553Z,100407.63
2022-12-27T08:12:19.020Z,100409.34
2022-12-27T08:14:48.783Z,100419.53
2022-12-27T08:17:22.164Z,100423.75
2022-12-27T08:19:53.388Z,100425.47
2022-12-27T08:22:22.661Z,100434.06
2022-12-27T08:24:51.237Z,100430.72
2022-12-27T08:27:23.305Z,100441.84
2022-12-27T08:29:53.059Z,100441.00
2022-12-27T08:32:21.452Z,100433.31
2022-12-27T08:34:49.853Z,100437.59
2022-12-27T08:37:18.461Z,100426.66
2022-12-27T08:39:46.811Z,100429.22
2022-12-27T08:42:15.456Z,100416.19
2022-12-27T08:44:44.135Z,100450.50
2022-12-27T08:47:13.904Z,100446.22
2022-12-27T08:49:42.250Z,100444.53
2022-12-27T08:52:10.758Z,100454.72
2022-12-27T08:54:39.346Z,100454.75
2022-12-27T08:57:07.928Z,100447.16
2022-12-27T08:59:36.516Z,100458.28
2022-12-27T09:02:05.007Z,100462.59
2022-12-27T09:04:34.905Z,100457.53
2022-12-27T09:07:05.112Z,100473.75
2022-12-27T09:09:33.540Z,100473.81
2022-12-27T09:12:04.036Z,100468.72
2022-12-27T09:14:36.453Z,100475.59
2022-12-27T09:17:06.266Z,100470.47
2022-12-27T09:19:36.125Z,100473.03
2022-12-27T09:22:04.587Z,100475.53
2022-12-27T09:24:32.978Z,100474.66
2022-12-27T09:27:01.577Z,100479.81
2022-12-27T09:29:30.329Z,100472.09
2022-12-27T09:31:58.746Z,100478.84
2022-12-27T09:34:27.113Z,100467.78
2022-12-27T09:36:56.893Z,100483.09
2022-12-27T09:39:25.366Z,100483.16
2022-12-27T09:44:58.268Z,100483.25
2022-12-27T09:47:32.994Z,100492.66
2022-12-27T09:50:06.151Z,100485.03
2022-12-27T09:52:41.390Z,100488.44
2022-12-27T09:55:17.367Z,100486.78
2022-12-27T09:57:47.428Z,100492.75
2022-12-27T10:00:19.723Z,100490.25
2022-12-27T10:03:07.412Z,100497.06
2022-12-27T10:05:39.554Z,100501.38
2022-12-27T10:08:31.023Z,100501.41
2022-12-27T10:11:31.167Z,100504.72
2022-12-27T10:14:07.196Z,100499.56
2022-12-27T10:16:46.948Z,100507.22
2022-12-27T10:19:30.561Z,100512.38
2022-12-27T10:22:14.137Z,100505.56
2022-12-27T10:24:50.493Z,100513.22
2022-12-27T10:27:24.874Z,100513.22
2022-12-27T10:29:55.888Z,100500.47
2022-12-27T10:32:24.702Z,100501.41
2022-12-27T10:35:01.950Z,100511.88
2022-12-27T10:37:31.440Z,100509.47
2022-12-27T10:40:12.549Z,100515.47
2022-12-27T10:42:46.997Z,100517.25
2022-12-27T10:45:36.546Z,100518.34
2022-12-27T10:48:21.543Z,100524.44
2022-12-27T10:50:55.633Z,100513.44
2022-12-27T10:53:40.435Z,100516.88
2022-12-27T10:56:15.376Z,100518.72
2022-12-27T10:58:50.301Z,100509.41
2022-12-27T11:01:26.170Z,100507.66
2022-12-27T11:04:20.122Z,100510.13
2022-12-27T11:06:53.179Z,100511.84
2022-12-27T11:09:32.069Z,100507.59
2022-12-27T11:12:23.866Z,100500.91
2022-12-27T11:14:59.341Z,100501.06
2022-12-27T11:17:36.567Z,100498.50
2022-12-27T11:20:21.847Z,100501.13
2022-12-27T11:22:55.037Z,100509.59
2022-12-27T11:25:24.404Z,100504.41
2022-12-27T11:27:58.976Z,100523.03
2022-12-27T11:30:32.313Z,100514.41
2022-12-27T11:33:06.575Z,100513.50
2022-12-27T11:35:48.088Z,100519.81
2022-12-27T11:38:25.595Z,100525.91
2022-12-27T11:41:02.548Z,100533.03
2022-12-27T11:43:36.962Z,100530.84
2022-12-27T11:46:11.208Z,100539.75
2022-12-27T11:48:45.487Z,100527.91
2022-12-27T11:51:47.766Z,100553.41
2022-12-27T11:54:37.529Z,100539.66
2022-12-27T11:57:20.456Z,100553.16
2022-12-27T12:00:01.576Z,100555.50
2022-12-27T12:02:45.820Z,100550.06
2022-12-27T12:05:55.712Z,100564.19
2022-12-27T12:09:00.779Z,100563.94
2022-12-27T12:11:55.141Z,100579.03
2022-12-27T12:14:56.315Z,100568.59
2022-12-27T12:17:56.670Z,100574.38
2022-12-27T12:20:51.001Z,100580.19
2022-12-27T12:23:38.293Z,100581.88
2022-12-27T12:26:17.793Z,100574.94
2022-12-27T12:29:26.291Z,100590.97
2022-12-27T12:32:34.924Z,100590.00
2022-12-27T12:35:38.276Z,100598.31
2022-12-27T12:38:21.221Z,100598.97
2022-12-27T12:41:20.787Z,100608.25
2022-12-27T12:44:25.854Z,100595.44
2022-12-27T12:47:06.059Z,100607.31
2022-12-27T12:50:01.336Z,100599.56
2022-12-27T12:53:12.465Z,100605.47
2022-12-27T12:55:59.960Z,100608.00
2022-12-27T12:58:49.332Z,100595.16
2022-12-27T13:01:39.658Z,100589.19
2022-12-27T13:04:41.170Z,100585.66
2022-12-27T13:07:42.321Z,100605.22
2022-12-27T13:10:57.696Z,100594.09
2022-12-27T13:13:40.897Z,100587.28
2022-12-27T13:16:21.888Z,100595.75
2022-12-27T13:19:05.413Z,100594.84
2022-12-27T13:21:52.964Z,100597.38
2022-12-27T13:24:32.431Z,100602.50
2022-12-27T13:27:17.428Z,100606.69
2022-12-27T13:30:07.227Z,100612.69
2022-12-27T13:33:08.579Z,100610.94
2022-12-27T13:35:55.450Z,100612.53
2022-12-27T13:38:42.570Z,100627.00
2022-12-27T13:41:38.965Z,100629.63
2022-12-27T13:44:42.859Z,100632.94
2022-12-27T13:48:07.035Z,100640.59
2022-12-27T13:51:13.965Z,100638.03
2022-12-27T13:54:30.692Z,100642.22
2022-12-27T13:57:15.056Z,100642.25
2022-12-27T14:00:14.614Z,100654.97
2022-12-27T14:03:36.203Z,100654.06
2022-12-27T14:06:44.926Z,100644.75
2022-12-27T14:09:40.517Z,100640.50
2022-12-27T14:12:51.461Z,100643.06
2022-12-27T14:15:24.622Z,100644.78
2022-12-27T14:18:22.176Z,100632.84
2022-12-27T14:21:29.982Z,100645.63
2022-12-27T14:24:12.565Z,100646.50
2022-12-27T14:27:16.726Z,100658.44
2022-12-27T14:30:24.195Z,100656.75
2022-12-27T14:33:47.529Z,100651.59
2022-12-27T14:37:21.274Z,100658.44
2022-12-27T14:40:34.461Z,100666.88
2022-12-27T14:44:02.871Z,100677.84
2022-12-27T14:47:29.422Z,100683.69
2022-12-27T14:51:19.815Z,100684.47
2022-12-27T14:54:38.777Z,100684.41
2022-12-27T14:57:22.789Z,100679.28
2022-12-27T15:00:00.868Z,100690.31
2022-12-27T15:03:03.034Z,100693.75
2022-12-27T15:05:56.453Z,100688.66
2022-12-27T15:08:50.478Z,100687.78
2022-12-27T15:11:52.516Z,100680.03
2022-12-27T15:14:48.532Z,100696.31
2022-12-27T15:17:35.622Z,100693.75
2022-12-27T15:20:33.372Z,100692.03
2022-12-27T15:23:19.012Z,100697.16
2022-12-27T15:26:04.024Z,100710.81
2022-12-27T15:28:49.621Z,100704.81
2022-12-27T15:31:30.668Z,100707.38
2022-12-27T15:34:20.377Z,100701.38
2022-12-27T15:36:52.015Z,100698.00
2022-12-27T15:39:51.069Z,100693.72
2022-12-27T15:42:49.095Z,100701.50
2022-12-27T15:45:37.935Z,100698.94
2022-12-27T15:49:00.986Z,100711.75
2022-12-27T15:51:38.175Z,100701.50
2022-12-27T15:54:32.017Z,100703.22
2022-12-27T15:57:37.332Z,100708.31
2022-12-27T16:00:28.692Z,100707.50
2022-12-27T16:03:01.794Z,100712.59
2022-12-27T16:05:48.843Z,100723.66
2022-12-27T16:08:35.482Z,100723.69
2022-12-27T16:11:09.821Z,100722.81
2022-12-27T16:13:50.921Z,100724.56
2022-12-27T16:16:59.705Z,100722.91
2022-12-27T16:20:11.611Z,100718.56
2022-12-27T16:22:44.425Z,100716.84
2022-12-27T16:25:31.017Z,100726.25
2022-12-27T16:28:07.715Z,100726.25
2022-12-27T16:30:46.309Z,100722.81
2022-12-27T16:33:38.010Z,100716.03
2022-12-27T16:36:29.823Z,100725.38
2022-12-27T16:39:50.309Z,100738.13
2022-12-27T16:42:28.517Z,100722.72
2022-12-27T16:45:05.568Z,100719.25
2022-12-27T16:47:56.104Z,100719.31
2022-12-27T16:50:40.930Z,100726.97
2022-12-27T16:53:24.729Z,100730.31
2022-12-27T16:56:22.104Z,100733.72
2022-12-27T16:58:50.748Z,100738.03
2022-12-27T17:02:03.820Z,100748.31
2022-12-27T17:04:58.498Z,100743.13
2022-12-27T17:08:20.160Z,100759.41
2022-12-27T17:11:22.521Z,100743.31
2022-12-27T17:13:55.745Z,100753.41
2022-12-27T17:16:29.841Z,100745.78
2022-12-27T17:19:04.470Z,100755.13
2022-12-27T17:21:35.588Z,100761.16
2022-12-27T17:24:10.920Z,100757.66
2022-12-27T17:27:02.087Z,100755.88
2022-12-27T17:30:16.042Z,100761.81
2022-12-27T17:33:28.333Z,100760.06
2022-12-27T17:36:28.405Z,100761.81
2022-12-27T17:39:11.199Z,100766.91
2022-12-27T17:42:09.994Z,100765.22
2022-12-27T17:44:59.252Z,100768.56
2022-12-27T17:48:10.163Z,100776.22
2022-12-27T17:50:44.389Z,100773.66
2022-12-27T17:53:38.669Z,100769.34
2022-12-27T17:56:35.976Z,100768.38
2022-12-27T17:59:11.398Z,100778.66
2022-12-27T18:01:47.866Z,100788.00
2022-12-27T18:04:27.648Z,100785.44
2022-12-27T18:06:57.559Z,100785.44
2022-12-27T18:09:40.073Z,100797.34
2022-12-27T18:12:17.644Z,100788.88
2022-12-27T18:14:58.955Z,100793.88
2022-12-27T18:17:32.247Z,100793.09
2022-12-27T18:20:00.942Z,100793.09
2022-12-27T18:22:29.698Z,100798.22
2022-12-27T18:25:01.146Z,100794.81
2022-12-27T18:27:29.629Z,100798.31
2022-12-27T18:29:58.445Z,100806.81
2022-12-27T18:32:32.516Z,100802.53
2022-12-27T18:35:03.494Z,100800.81
2022-12-27T18:37:36.425Z,100810.19
2022-12-27T18:40:07.936Z,100813.59
2022-12-27T18:42:42.958Z,100813.59
2022-12-27T18:45:23.265Z,100811.03
2022-12-27T18:47:54.753Z,100816.06
2022-12-27T18:50:26.598Z,100822.94
2022-12-27T18:53:04.239Z,100818.72
2022-12-27T18:55:35.599Z,100820.44
2022-12-27T18:58:08.091Z,100820.34
2022-12-27T19:00:50.265Z,100834.03
2022-12-27T19:03:21.343Z,100835.78
2022-12-27T19:06:06.566Z,100830.63
2022-12-27T19:08:39.139Z,100843.44
2022-12-27T19:11:09.605Z,100838.34
2022-12-27T19:13:48.570Z,100835.81
2022-12-27T19:16:25.392Z,100845.16
2022-12-27T19:18:57.593Z,100840.88
2022-12-27T19:21:33.433Z,100846.00
2022-12-27T19:24:21.513Z,100846.78
2022-12-27T19:26:51.830Z,100845.94
2022-12-27T19:29:22.763Z,100835.69
2022-12-27T19:31:57.927Z,100844.25
2022-12-27T19:34:29.836Z,100836.59
2022-12-27T19:36:59.168Z,100839.97
2022-12-27T19:39:32.695Z,100837.41
2022-12-27T19:42:06.597Z,100849.34
2022-12-27T19:44:35.684Z,100843.34
2022-12-27T19:47:04.134Z,100839.84
2022-12-27T19:49:43.013Z,100851.84
2022-12-27T19:52:18.787Z,100852.63
2022-12-27T19:54:47.752Z,100854.28
2022-12-27T19:57:18.358Z,100855.94
2022-12-27T19:59:46.762Z,100872.91
2022-12-27T20:02:15.303Z,100866.09
2022-12-27T20:04:43.732Z,100874.59
2022-12-27T20:07:19.284Z,100877.09
2022-12-27T20:09:47.677Z,100876.25
2022-12-27T20:12:19.679Z,100876.25
2022-12-27T20:14:48.442Z,100879.66
2022-12-27T20:17:17.032Z,100884.69
2022-12-27T20:22:14.073Z,100876.94
2022-12-27T20:24:42.583Z,100878.56
2022-12-27T20:27:11.289Z,100874.28
2022-12-27T20:29:41.159Z,100891.19
2022-12-27T20:32:09.632Z,100895.31
2022-12-27T20:34:38.113Z,100888.38
2022-12-27T20:37:07.235Z,100882.34
2022-12-27T20:39:35.676Z,100889.03
2022-12-27T20:42:04.171Z,100900.88
2022-12-27T20:44:32.592Z,100898.31
2022-12-27T20:47:02.438Z,100896.63
2022-12-27T20:49:31.126Z,100899.22
2022-12-27T20:51:59.534Z,100898.31
2022-12-27T20:54:27.981Z,100914.56
2022-12-27T20:56:56.530Z,100901.78
2022-12-27T20:59:25.064Z,100911.16
2022-12-27T21:01:57.264Z,100907.84
2022-12-27T21:04:27.832Z,100912.94
2022-12-27T21:06:56.439Z,100909.59
2022-12-27T21:09:25.048Z,100912.19
2022-12-27T21:11:54.006Z,100919.06
2022-12-27T21:14:22.610Z,100915.72
2022-12-27T21:16:51.302Z,100914.06
2022-12-27T21:19:20.055Z,100921.75
2022-12-27T21:21:49.959Z,100913.28
2022-12-27T21:24:18.464Z,100922.66
2022-12-27T21:26:47.842Z,100926.06
2022-12-27T21:29:19.599Z,100926.91
2022-12-27T21:31:48.060Z,100928.63
2022-12-27T21:34:16.794Z,100932.09
2022-12-27T21:36:45.464Z,100932.91
2022-12-27T21:39:16.068Z,100937.22
2022-12-27T21:41:44.778Z,100936.34
2022-12-27T21:44:13.608Z,100937.19
2022-12-27T21:46:43.879Z,100938.06
2022-12-27T21:49:14.728Z,100943.19
2022-12-27T21:51:46.544Z,100942.41
2022-12-27T21:54:16.490Z,100944.09
2022-12-27T21:56:45.296Z,100946.66
2022-12-27T21:59:14.094Z,100948.34
2022-12-27T22:01:51.485Z,100948.34
2022-12-27T22:04:21.669Z,100946.66
2022-12-27T22:06:50.726Z,100950.94
2022-12-27T22:09:20.908Z,100944.97
2022-12-27T22:11:49.598Z,100957.69
2022-12-27T22:14:23.365Z,100949.13
2022-12-27T22:16:53.780Z,100952.59
2022-12-27T22:19:22.383Z,100954.25
2022-12-27T22:21:50.675Z,100955.81
2022-12-27T22:24:20.532Z,100969.50
2022-12-27T22:26:50.466Z,100966.13
2022-12-27T22:29:19.038Z,100962.72
2022-12-27T22:31:47.473Z,100964.41
2022-12-27T22:34:15.983Z,100971.22
2022-12-27T22:36:44.481Z,100965.34
2022-12-27T22:39:12.897Z,100955.91
2022-12-27T22:41:42.697Z,100965.34
2022-12-27T22:44:14.318Z,100976.31
2022-12-27T22:47:25.187Z,100963.56
2022-12-27T22:49:32.068Z,100961.03
2022-12-27T22:52:00.443Z,100955.03
2022-12-27T22:55:03.461Z,100961.03
2022-12-27T22:57:18.698Z,100962.78
2022-12-27T22:59:47.126Z,100957.63
2022-12-27T23:02:15.800Z,100954.25
2022-12-27T23:04:44.493Z,100953.38
2022-12-27T23:07:13.021Z,100953.44
2022-12-27T23:09:43.731Z,100946.66
2022-12-27T23:12:12.833Z,100950.06
2022-12-27T23:14:42.761Z,100949.25
2022-12-27T23:17:11.283Z,100950.09
2022-12-27T23:19:39.757Z,100955.19
2022-12-27T23:22:08.287Z,100953.47
2022-12-27T23:24:37.163Z,100944.09
2022-12-27T23:27:05.819Z,100947.53
2022-12-27T23:29:34.275Z,100953.56
2022-12-27T23:32:04.401Z,100948.47
2022-12-27T23:34:32.864Z,100955.28
2022-12-27T23:37:01.586Z,100952.81
2022-12-27T23:39:30.171Z,100948.56
2022-12-27T23:41:58.816Z,100952.84
2022-12-27T23:44:33.022Z,100958.78
2022-12-27T23:47:05.917Z,100955.34
2022-12-27T23:49:35.000Z,100957.91
2022-12-27T23:52:04.021Z,100951.97
2022-12-27T23:54:32.659Z,100952.81
2022-12-27T23:57:22.011Z,100958.78
2022-12-27T23:59:50.085Z,100960.47
